createdAt,value
2019-02-10T00:00:25.782Z,0.00
2019-02-10T00:01:25.703Z,0.00
2019-02-10T00:02:25.633Z,0.00
2019-02-10T00:03:25.627Z,0.00
2019-02-10T00:04:25.661Z,0.00
2019-02-10T00:05:25.727Z,0.00
2019-02-10T00:06:25.593Z,0.00
2019-02-10T00:07:25.573Z,0.00
2019-02-10T00:08:25.568Z,0.00
2019-02-10T00:09:25.566Z,0.00
2019-02-10T00:10:25.591Z,0.00
2019-02-10T00:11:25.539Z,0.00
2019-02-10T00:12:25.523Z,0.00
2019-02-10T00:13:25.519Z,0.00
2019-02-10T00:14:25.520Z,0.00
2019-02-10T00:15:25.501Z,0.00
2019-02-10T00:16:25.505Z,0.00
2019-02-10T00:17:25.480Z,0.00
2019-02-10T00:18:25.461Z,0.00
2019-02-10T00:19:25.471Z,0.00
2019-02-10T00:20:25.428Z,0.00
2019-02-10T00:21:25.488Z,0.00
2019-02-10T00:22:25.418Z,0.00
2019-02-10T00:23:25.418Z,0.00
2019-02-10T00:24:25.407Z,0.00
2019-02-10T00:25:25.409Z,0.00
2019-02-10T00:26:25.390Z,0.00
2019-02-10T00:27:25.469Z,0.00
2019-02-10T00:28:25.359Z,0.00
2019-02-10T00:29:25.354Z,0.00
2019-02-10T00:30:25.357Z,0.00
2019-02-10T00:31:25.331Z,0.00
2019-02-10T00:32:25.305Z,0.00
2019-02-10T00:33:25.314Z,0.00
2019-02-10T00:34:25.310Z,0.00
2019-02-10T00:35:25.285Z,0.00
2019-02-10T00:36:32.646Z,0.00
2019-02-10T00:37:26.282Z,0.00
2019-02-10T00:38:25.241Z,0.00
2019-02-10T00:39:25.232Z,0.00
2019-02-10T00:40:25.249Z,0.00
2019-02-10T00:41:25.204Z,0.00
2019-02-10T00:42:25.197Z,0.00
2019-02-10T00:43:25.188Z,0.00
2019-02-10T00:44:25.192Z,0.00
2019-02-10T00:45:25.235Z,0.00
2019-02-10T00:46:25.186Z,0.00
2019-02-10T00:47:25.148Z,0.00
2019-02-10T00:48:25.139Z,0.00
2019-02-10T00:49:25.126Z,0.00
2019-02-10T00:50:25.109Z,0.00
2019-02-10T00:51:25.123Z,0.00
2019-02-10T00:52:25.090Z,0.00
2019-02-10T00:53:25.073Z,0.00
2019-02-10T00:54:25.078Z,0.00
2019-02-10T00:55:25.067Z,0.00
2019-02-10T00:56:25.066Z,0.00
2019-02-10T00:57:25.060Z,0.00
2019-02-10T00:58:25.013Z,0.00
2019-02-10T00:59:25.007Z,0.00
2019-02-10T01:00:25.005Z,0.00
2019-02-10T01:01:25.785Z,0.00
2019-02-10T01:02:25.000Z,0.00
2019-02-10T01:03:24.970Z,0.00
2019-02-10T01:04:24.976Z,0.00
2019-02-10T01:05:24.945Z,0.00
2019-02-10T01:06:24.948Z,0.00
2019-02-10T01:07:24.931Z,0.00
2019-02-10T01:08:24.939Z,0.00
2019-02-10T01:09:24.911Z,0.00
2019-02-10T01:10:24.897Z,0.00
2019-02-10T01:11:24.875Z,0.00
2019-02-10T01:12:24.865Z,0.00
2019-02-10T01:13:24.891Z,0.00
2019-02-10T01:14:24.844Z,0.00
2019-02-10T01:15:24.851Z,0.00
2019-02-10T01:16:24.816Z,0.00
2019-02-10T01:17:24.809Z,0.00
2019-02-10T01:18:24.828Z,0.00
2019-02-10T01:19:24.815Z,0.00
2019-02-10T01:20:24.787Z,0.00
2019-02-10T01:21:24.786Z,0.00
2019-02-10T01:22:24.758Z,0.00
2019-02-10T01:23:24.759Z,0.00
2019-02-10T01:24:24.773Z,0.00
2019-02-10T01:25:24.723Z,0.00
2019-02-10T01:26:24.730Z,0.00
2019-02-10T01:27:24.725Z,0.00
2019-02-10T01:28:24.720Z,0.00
2019-02-10T01:29:24.707Z,0.00
2019-02-10T01:30:24.674Z,0.00
2019-02-10T01:31:24.663Z,0.00
2019-02-10T01:32:24.659Z,0.00
2019-02-10T01:33:24.644Z,0.00
2019-02-10T01:34:24.671Z,0.00
2019-02-10T01:35:24.639Z,0.00
2019-02-10T01:36:24.611Z,0.00
2019-02-10T01:37:24.594Z,0.00
2019-02-10T01:38:24.610Z,0.00
2019-02-10T01:39:24.627Z,0.00
2019-02-10T01:40:24.565Z,0.00
2019-02-10T01:41:24.551Z,0.00
2019-02-10T01:42:24.544Z,0.00
2019-02-10T01:43:24.623Z,0.00
2019-02-10T01:44:24.520Z,0.00
2019-02-10T01:45:24.540Z,0.00
2019-02-10T01:46:24.516Z,0.00
2019-02-10T01:47:24.522Z,0.00
2019-02-10T01:48:24.484Z,0.00
2019-02-10T01:49:24.462Z,0.00
2019-02-10T01:50:24.474Z,0.00
2019-02-10T01:51:24.472Z,0.00
2019-02-10T01:52:24.450Z,0.00
2019-02-10T01:53:24.427Z,0.00
2019-02-10T01:54:24.427Z,0.00
2019-02-10T01:55:24.415Z,0.00
2019-02-10T01:56:24.424Z,0.00
2019-02-10T01:57:24.369Z,0.00
2019-02-10T01:58:24.372Z,0.00
2019-02-10T01:59:24.359Z,0.00
2019-02-10T02:00:24.357Z,0.00
2019-02-10T02:01:24.344Z,0.00
2019-02-10T02:02:24.347Z,0.00
2019-02-10T02:03:24.316Z,0.00
2019-02-10T02:04:24.309Z,0.00
2019-02-10T02:05:24.299Z,0.00
2019-02-10T02:06:24.280Z,0.00
2019-02-10T02:07:24.310Z,0.00
2019-02-10T02:08:24.250Z,0.00
2019-02-10T02:09:24.238Z,0.00
2019-02-10T02:10:24.239Z,0.00
2019-02-10T02:11:24.239Z,0.00
2019-02-10T02:12:24.216Z,0.00
2019-02-10T02:13:24.230Z,0.00
2019-02-10T02:14:24.190Z,0.00
2019-02-10T02:15:24.193Z,0.00
2019-02-10T02:16:24.166Z,0.00
2019-02-10T02:17:24.158Z,0.00
2019-02-10T02:18:24.250Z,0.00
2019-02-10T02:19:24.136Z,0.00
2019-02-10T02:20:24.123Z,0.00
2019-02-10T02:21:24.106Z,0.00
2019-02-10T02:22:24.138Z,0.00
2019-02-10T02:23:24.114Z,0.00
2019-02-10T02:24:24.203Z,0.00
2019-02-10T02:25:24.142Z,0.00
2019-02-10T02:26:24.099Z,0.00
2019-02-10T02:27:24.062Z,0.00
2019-02-10T02:28:24.368Z,0.00
2019-02-10T02:29:25.171Z,0.00
2019-02-10T02:30:24.064Z,0.00
2019-02-10T02:31:24.094Z,0.00
2019-02-10T02:32:24.009Z,0.00
2019-02-10T02:33:23.998Z,0.00
2019-02-10T02:34:23.970Z,0.00
2019-02-10T02:35:23.982Z,0.00
2019-02-10T02:36:23.997Z,0.00
2019-02-10T02:37:24.015Z,0.00
2019-02-10T02:38:23.931Z,0.00
2019-02-10T02:39:23.921Z,0.00
2019-02-10T02:40:23.904Z,0.00
2019-02-10T02:41:23.896Z,0.00
2019-02-10T02:42:23.911Z,0.00
2019-02-10T02:43:23.883Z,0.00
2019-02-10T02:44:23.880Z,0.00
2019-02-10T02:45:23.856Z,0.00
2019-02-10T02:46:23.857Z,0.00
2019-02-10T02:47:23.834Z,0.00
2019-02-10T02:48:23.831Z,0.00
2019-02-10T02:49:23.811Z,0.00
2019-02-10T02:50:23.802Z,0.00
2019-02-10T02:51:23.815Z,0.00
2019-02-10T02:52:23.772Z,0.00
2019-02-10T02:53:23.772Z,0.00
2019-02-10T02:54:23.762Z,0.00
2019-02-10T02:55:23.752Z,0.00
2019-02-10T02:56:23.760Z,0.00
2019-02-10T02:57:23.740Z,0.00
2019-02-10T02:58:23.710Z,0.00
2019-02-10T02:59:23.696Z,0.00
2019-02-10T03:00:23.686Z,0.00
2019-02-10T03:01:23.675Z,0.00
2019-02-10T03:02:23.699Z,0.00
2019-02-10T03:03:23.678Z,0.00
2019-02-10T03:04:23.649Z,0.00
2019-02-10T03:05:23.663Z,0.00
2019-02-10T03:06:23.627Z,0.00
2019-02-10T03:07:23.614Z,0.00
2019-02-10T03:08:23.609Z,0.00
2019-02-10T03:09:23.607Z,0.00
2019-02-10T03:10:23.587Z,0.00
2019-02-10T03:11:23.589Z,0.00
2019-02-10T03:12:23.556Z,0.00
2019-02-10T03:13:23.538Z,0.00
2019-02-10T03:14:23.537Z,0.00
2019-02-10T03:15:23.544Z,0.00
2019-02-10T03:16:23.551Z,0.00
2019-02-10T03:17:23.507Z,0.00
2019-02-10T03:18:23.494Z,0.00
2019-02-10T03:19:23.479Z,0.00
2019-02-10T03:20:23.477Z,0.00
2019-02-10T03:21:23.456Z,0.00
2019-02-10T03:22:23.472Z,0.00
2019-02-10T03:23:23.465Z,0.00
2019-02-10T03:24:23.429Z,0.00
2019-02-10T03:25:23.416Z,0.00
2019-02-10T03:26:23.443Z,0.00
2019-02-10T03:27:23.402Z,0.00
2019-02-10T03:28:23.393Z,0.00
2019-02-10T03:29:23.381Z,0.00
2019-02-10T03:30:23.366Z,0.00
2019-02-10T03:31:23.348Z,0.00
2019-02-10T03:32:23.358Z,0.00
2019-02-10T03:33:23.328Z,0.00
2019-02-10T03:34:23.335Z,0.00
2019-02-10T03:35:23.312Z,0.00
2019-02-10T03:36:23.315Z,0.00
2019-02-10T03:37:27.269Z,0.00
2019-02-10T03:38:23.284Z,0.00
2019-02-10T03:39:23.279Z,0.00
2019-02-10T03:40:23.262Z,0.00
2019-02-10T03:41:23.246Z,0.00
2019-02-10T03:42:23.234Z,0.00
2019-02-10T03:43:23.249Z,0.00
2019-02-10T03:44:23.202Z,0.00
2019-02-10T03:45:23.203Z,0.00
2019-02-10T03:46:23.211Z,0.00
2019-02-10T03:47:23.187Z,0.00
2019-02-10T03:48:23.198Z,0.00
2019-02-10T03:49:23.168Z,0.00
2019-02-10T03:50:23.141Z,0.00
2019-02-10T03:51:23.135Z,0.00
2019-02-10T03:52:23.117Z,0.00
2019-02-10T03:53:23.142Z,0.00
2019-02-10T03:54:23.110Z,0.00
2019-02-10T03:55:23.096Z,0.00
2019-02-10T03:56:23.074Z,0.00
2019-02-10T03:57:23.076Z,0.00
2019-02-10T03:58:23.089Z,0.00
2019-02-10T03:59:23.075Z,0.00
2019-02-10T04:00:23.041Z,0.00
2019-02-10T04:01:23.043Z,0.00
2019-02-10T04:02:23.012Z,0.00
2019-02-10T04:03:23.023Z,0.00
2019-02-10T04:04:23.026Z,0.00
2019-02-10T04:05:22.988Z,0.00
2019-02-10T04:06:22.980Z,0.00
2019-02-10T04:07:22.969Z,0.00
2019-02-10T04:08:22.982Z,0.00
2019-02-10T04:09:22.979Z,0.00
2019-02-10T04:10:22.922Z,0.00
2019-02-10T04:11:22.941Z,0.00
2019-02-10T04:12:22.907Z,0.00
2019-02-10T04:13:22.894Z,0.00
2019-02-10T04:14:22.893Z,0.00
2019-02-10T04:15:22.910Z,0.00
2019-02-10T04:16:22.873Z,0.00
2019-02-10T04:17:22.870Z,0.00
2019-02-10T04:18:22.858Z,0.00
2019-02-10T04:19:22.832Z,0.00
2019-02-10T04:20:22.826Z,0.00
2019-02-10T04:21:22.815Z,0.00
2019-02-10T04:22:22.816Z,0.00
2019-02-10T04:23:22.793Z,0.00
2019-02-10T04:24:22.775Z,0.00
2019-02-10T04:25:22.760Z,0.00
2019-02-10T04:26:22.775Z,0.00
2019-02-10T04:27:22.749Z,0.00
2019-02-10T04:28:22.740Z,0.00
2019-02-10T04:29:22.714Z,0.00
2019-02-10T04:30:22.724Z,0.00
2019-02-10T04:31:22.734Z,0.00
2019-02-10T04:32:22.697Z,0.00
2019-02-10T04:33:22.692Z,0.00
2019-02-10T04:34:22.656Z,0.00
2019-02-10T04:35:22.651Z,0.00
2019-02-10T04:36:22.633Z,0.00
2019-02-10T04:37:22.642Z,0.00
2019-02-10T04:38:22.635Z,0.00
2019-02-10T04:39:22.613Z,0.00
2019-02-10T04:40:22.603Z,0.00
2019-02-10T04:41:22.599Z,0.00
2019-02-10T04:42:22.600Z,0.00
2019-02-10T04:43:22.574Z,0.00
2019-02-10T04:44:22.575Z,0.00
2019-02-10T04:45:22.548Z,0.00
2019-02-10T04:46:22.530Z,0.00
2019-02-10T04:47:22.539Z,0.00
2019-02-10T04:48:22.540Z,0.00
2019-02-10T04:49:22.504Z,0.00
2019-02-10T04:50:22.492Z,0.00
2019-02-10T04:51:22.486Z,0.00
2019-02-10T04:52:22.471Z,0.00
2019-02-10T04:53:22.472Z,0.00
2019-02-10T04:54:22.482Z,0.00
2019-02-10T04:55:22.434Z,0.00
2019-02-10T04:56:22.418Z,0.00
2019-02-10T04:57:22.416Z,0.00
2019-02-10T04:58:22.407Z,0.00
2019-02-10T04:59:22.399Z,0.00
2019-02-10T05:00:22.396Z,0.00
2019-02-10T05:01:22.377Z,0.00
2019-02-10T05:02:22.366Z,0.00
2019-02-10T05:03:22.351Z,0.00
2019-02-10T05:04:22.365Z,0.00
2019-02-10T05:05:22.442Z,0.00
2019-02-10T05:06:22.339Z,0.00
2019-02-10T05:07:22.303Z,0.00
2019-02-10T05:08:22.286Z,0.00
2019-02-10T05:09:22.310Z,0.00
2019-02-10T05:10:22.282Z,0.00
2019-02-10T05:11:22.286Z,0.00
2019-02-10T05:12:22.265Z,0.00
2019-02-10T05:13:22.242Z,0.00
2019-02-10T05:14:22.229Z,0.00
2019-02-10T05:15:22.209Z,0.00
2019-02-10T05:16:22.249Z,0.00
2019-02-10T05:17:22.213Z,0.00
2019-02-10T05:18:22.185Z,0.00
2019-02-10T05:19:22.188Z,0.00
2019-02-10T05:20:22.175Z,0.00
2019-02-10T05:21:22.148Z,0.00
2019-02-10T05:22:22.172Z,0.00
2019-02-10T05:23:22.138Z,0.00
2019-02-10T05:24:22.134Z,0.00
2019-02-10T05:25:22.120Z,0.00
2019-02-10T05:26:22.097Z,0.00
2019-02-10T05:27:22.107Z,0.00
2019-02-10T05:28:22.079Z,0.00
2019-02-10T05:29:22.067Z,0.00
2019-02-10T05:30:22.066Z,0.00
2019-02-10T05:31:22.046Z,0.00
2019-02-10T05:32:22.063Z,0.00
2019-02-10T05:33:22.023Z,0.00
2019-02-10T05:34:22.018Z,0.00
2019-02-10T05:35:22.011Z,0.00
2019-02-10T05:36:21.990Z,0.00
2019-02-10T05:37:21.987Z,0.00
2019-02-10T05:38:21.995Z,0.00
2019-02-10T05:39:21.959Z,0.00
2019-02-10T05:40:21.941Z,0.00
2019-02-10T05:41:21.951Z,0.00
2019-02-10T05:42:21.924Z,0.00
2019-02-10T05:43:21.950Z,0.00
2019-02-10T05:44:21.906Z,0.00
2019-02-10T05:45:21.946Z,0.00
2019-02-10T05:46:21.874Z,0.00
2019-02-10T05:47:21.878Z,0.00
2019-02-10T05:48:21.872Z,0.00
2019-02-10T05:49:21.883Z,0.00
2019-02-10T05:50:21.836Z,0.00
2019-02-10T05:51:21.822Z,0.00
2019-02-10T05:52:21.816Z,0.00
2019-02-10T05:53:21.798Z,0.00
2019-02-10T05:54:21.799Z,0.00
2019-02-10T05:55:21.818Z,0.00
2019-02-10T05:56:21.777Z,0.00
2019-02-10T05:57:21.768Z,0.00
2019-02-10T05:58:21.743Z,0.00
2019-02-10T05:59:21.733Z,0.00
2019-02-10T06:00:21.745Z,0.00
2019-02-10T06:01:21.735Z,0.00
2019-02-10T06:02:21.712Z,0.00
2019-02-10T06:03:21.708Z,0.00
2019-02-10T06:04:21.688Z,0.00
2019-02-10T06:05:21.698Z,0.00
2019-02-10T06:06:21.692Z,0.00
2019-02-10T06:07:21.657Z,0.00
2019-02-10T06:08:21.656Z,0.00
2019-02-10T06:09:21.648Z,0.00
2019-02-10T06:10:21.617Z,0.00
2019-02-10T06:11:21.629Z,0.00
2019-02-10T06:12:21.597Z,0.00
2019-02-10T06:13:21.581Z,0.00
2019-02-10T06:14:21.589Z,0.00
2019-02-10T06:15:21.567Z,0.00
2019-02-10T06:16:21.577Z,0.00
2019-02-10T06:17:21.577Z,0.00
2019-02-10T06:18:21.524Z,0.00
2019-02-10T06:19:21.515Z,0.00
2019-02-10T06:20:21.522Z,0.00
2019-02-10T06:21:21.504Z,0.00
2019-02-10T06:22:21.495Z,0.00
2019-02-10T06:23:21.506Z,0.00
2019-02-10T06:24:21.475Z,0.00
2019-02-10T06:25:21.484Z,0.00
2019-02-10T06:26:21.462Z,0.00
2019-02-10T06:27:21.439Z,0.00
2019-02-10T06:28:21.429Z,0.00
2019-02-10T06:29:21.445Z,0.00
2019-02-10T06:30:21.398Z,0.00
2019-02-10T06:31:21.389Z,0.00
2019-02-10T06:32:21.370Z,5.62
2019-02-10T06:33:21.382Z,5.62
2019-02-10T06:34:21.356Z,5.62
2019-02-10T06:35:21.375Z,5.62
2019-02-10T06:36:21.330Z,5.62
2019-02-10T06:37:21.319Z,5.62
2019-02-10T06:38:22.739Z,5.62
2019-02-10T06:39:21.308Z,5.62
2019-02-10T06:40:21.318Z,5.62
2019-02-10T06:41:21.287Z,11.25
2019-02-10T06:42:21.264Z,11.25
2019-02-10T06:43:21.265Z,11.25
2019-02-10T06:44:21.246Z,11.25
2019-02-10T06:45:21.257Z,11.25
2019-02-10T06:46:21.238Z,11.25
2019-02-10T06:47:21.238Z,11.25
2019-02-10T06:48:21.206Z,11.25
2019-02-10T06:49:21.207Z,16.88
2019-02-10T06:50:21.196Z,16.88
2019-02-10T06:51:21.205Z,16.88
2019-02-10T06:52:21.162Z,16.88
2019-02-10T06:53:21.158Z,16.88
2019-02-10T06:54:21.135Z,16.88
2019-02-10T06:55:21.119Z,22.50
2019-02-10T06:56:21.139Z,22.50
2019-02-10T06:57:21.113Z,22.50
2019-02-10T06:58:21.107Z,22.50
2019-02-10T06:59:21.096Z,22.50
2019-02-10T07:00:21.095Z,28.12
2019-02-10T07:01:21.095Z,28.12
2019-02-10T07:02:21.047Z,28.12
2019-02-10T07:03:21.045Z,28.12
2019-02-10T07:04:21.026Z,33.75
2019-02-10T07:05:21.014Z,33.75
2019-02-10T07:06:21.045Z,33.75
2019-02-10T07:07:21.002Z,33.75
2019-02-10T07:08:20.984Z,39.38
2019-02-10T07:09:20.967Z,39.38
2019-02-10T07:10:20.988Z,39.38
2019-02-10T07:11:20.962Z,45.00
2019-02-10T07:12:20.967Z,45.00
2019-02-10T07:13:20.929Z,50.62
2019-02-10T07:14:20.910Z,50.62
2019-02-10T07:15:20.954Z,50.62
2019-02-10T07:16:20.895Z,50.62
2019-02-10T07:17:20.932Z,56.25
2019-02-10T07:18:20.881Z,56.25
2019-02-10T07:19:20.899Z,56.25
2019-02-10T07:20:20.863Z,56.25
2019-02-10T07:21:21.169Z,61.88
2019-02-10T07:22:20.904Z,61.88
2019-02-10T07:23:20.818Z,61.88
2019-02-10T07:24:20.812Z,67.50
2019-02-10T07:25:20.805Z,67.50
2019-02-10T07:26:20.786Z,67.50
2019-02-10T07:27:20.809Z,67.50
2019-02-10T07:28:20.788Z,73.12
2019-02-10T07:29:20.763Z,73.12
2019-02-10T07:30:20.765Z,73.12
2019-02-10T07:31:20.809Z,67.50
2019-02-10T07:32:20.722Z,67.50
2019-02-10T07:33:20.731Z,67.50
2019-02-10T07:34:20.689Z,61.88
2019-02-10T07:35:20.693Z,61.88
2019-02-10T07:36:20.687Z,56.25
2019-02-10T07:37:20.672Z,56.25
2019-02-10T07:38:20.686Z,50.62
2019-02-10T07:39:20.656Z,50.62
2019-02-10T07:40:20.654Z,50.62
2019-02-10T07:41:20.662Z,50.62
2019-02-10T07:42:20.620Z,50.62
2019-02-10T07:43:20.657Z,45.00
2019-02-10T07:44:20.594Z,39.38
2019-02-10T07:45:20.584Z,39.38
2019-02-10T07:46:20.569Z,39.38
2019-02-10T07:47:20.550Z,39.38
2019-02-10T07:48:20.554Z,45.00
2019-02-10T07:49:20.555Z,45.00
2019-02-10T07:50:20.527Z,50.62
2019-02-10T07:51:20.522Z,56.25
2019-02-10T07:52:20.513Z,56.25
2019-02-10T07:53:20.499Z,61.88
2019-02-10T07:54:20.512Z,67.50
2019-02-10T07:55:20.473Z,67.50
2019-02-10T07:56:20.471Z,73.12
2019-02-10T07:57:20.454Z,78.75
2019-02-10T07:58:20.441Z,84.38
2019-02-10T07:59:20.431Z,90.00
2019-02-10T08:00:20.434Z,90.00
2019-02-10T08:01:20.475Z,90.00
2019-02-10T08:02:20.396Z,90.00
2019-02-10T08:03:20.382Z,95.62
2019-02-10T08:04:20.384Z,95.62
2019-02-10T08:05:20.390Z,101.25
2019-02-10T08:06:20.416Z,101.25
2019-02-10T08:07:20.337Z,95.62
2019-02-10T08:08:20.319Z,95.62
2019-02-10T08:09:20.314Z,95.62
2019-02-10T08:10:20.309Z,101.25
2019-02-10T08:11:20.299Z,101.25
2019-02-10T08:12:20.304Z,95.62
2019-02-10T08:13:20.271Z,84.38
2019-02-10T08:14:20.270Z,67.50
2019-02-10T08:15:20.261Z,61.88
2019-02-10T08:16:20.275Z,56.25
2019-02-10T08:17:20.259Z,56.25
2019-02-10T08:18:20.221Z,61.88
2019-02-10T08:19:20.213Z,78.75
2019-02-10T08:20:20.190Z,101.25
2019-02-10T08:21:20.223Z,95.62
2019-02-10T08:22:20.177Z,90.00
2019-02-10T08:23:20.182Z,95.62
2019-02-10T08:24:20.162Z,112.50
2019-02-10T08:25:20.151Z,106.88
2019-02-10T08:26:20.133Z,101.25
2019-02-10T08:27:20.134Z,101.25
2019-02-10T08:28:20.124Z,95.62
2019-02-10T08:29:20.114Z,84.38
2019-02-10T08:30:20.093Z,73.12
2019-02-10T08:31:20.076Z,84.38
2019-02-10T08:32:20.089Z,84.38
2019-02-10T08:33:20.063Z,84.38
2019-02-10T08:34:20.050Z,84.38
2019-02-10T08:35:20.038Z,84.38
2019-02-10T08:36:20.018Z,84.38
2019-02-10T08:37:20.030Z,84.38
2019-02-10T08:38:20.006Z,84.38
2019-02-10T08:39:19.990Z,78.75
2019-02-10T08:40:19.999Z,78.75
2019-02-10T08:41:19.981Z,84.38
2019-02-10T08:42:19.952Z,90.00
2019-02-10T08:43:19.968Z,90.00
2019-02-10T08:44:19.961Z,95.62
2019-02-10T08:45:19.927Z,101.25
2019-02-10T08:46:19.914Z,112.50
2019-02-10T08:47:19.902Z,118.12
2019-02-10T08:48:19.886Z,118.12
2019-02-10T08:49:19.901Z,118.12
2019-02-10T08:50:19.900Z,118.12
2019-02-10T08:51:19.858Z,112.50
2019-02-10T08:52:19.884Z,106.88
2019-02-10T08:53:19.862Z,101.25
2019-02-10T08:54:19.825Z,95.62
2019-02-10T08:55:19.812Z,95.62
2019-02-10T08:56:19.797Z,84.38
2019-02-10T08:57:19.816Z,90.00
2019-02-10T08:58:19.787Z,90.00
2019-02-10T08:59:19.776Z,101.25
2019-02-10T09:00:19.763Z,106.88
2019-02-10T09:01:19.745Z,106.88
2019-02-10T09:02:19.787Z,101.25
2019-02-10T09:03:19.995Z,95.62
2019-02-10T09:04:19.718Z,84.38
2019-02-10T09:05:19.714Z,67.50
2019-02-10T09:06:19.688Z,67.50
2019-02-10T09:07:19.678Z,61.88
2019-02-10T09:08:19.702Z,50.62
2019-02-10T09:09:19.694Z,56.25
2019-02-10T09:10:19.653Z,50.62
2019-02-10T09:11:19.649Z,56.25
2019-02-10T09:12:19.706Z,56.25
2019-02-10T09:13:19.625Z,50.62
2019-02-10T09:14:19.598Z,56.25
2019-02-10T09:15:19.613Z,56.25
2019-02-10T09:16:19.591Z,56.25
2019-02-10T09:17:19.582Z,61.88
2019-02-10T09:18:19.557Z,67.50
2019-02-10T09:19:20.601Z,67.50
2019-02-10T09:20:19.536Z,67.50
2019-02-10T09:21:19.553Z,67.50
2019-02-10T09:22:19.522Z,73.12
2019-02-10T09:23:19.517Z,73.12
2019-02-10T09:24:19.557Z,73.12
2019-02-10T09:25:19.493Z,84.38
2019-02-10T09:26:19.480Z,78.75
2019-02-10T09:27:19.462Z,78.75
2019-02-10T09:28:19.457Z,84.38
2019-02-10T09:29:19.439Z,84.38
2019-02-10T09:30:19.466Z,84.38
2019-02-10T09:31:19.419Z,90.00
2019-02-10T09:32:19.413Z,90.00
2019-02-10T09:33:19.393Z,84.38
2019-02-10T09:34:19.393Z,84.38
2019-02-10T09:35:19.384Z,73.12
2019-02-10T09:36:19.390Z,78.75
2019-02-10T09:37:19.360Z,78.75
2019-02-10T09:38:19.345Z,73.12
2019-02-10T09:39:19.326Z,84.38
2019-02-10T09:40:19.318Z,84.38
2019-02-10T09:41:19.335Z,84.38
2019-02-10T09:42:19.309Z,90.00
2019-02-10T09:43:19.302Z,84.38
2019-02-10T09:44:19.284Z,84.38
2019-02-10T09:45:19.269Z,84.38
2019-02-10T09:46:19.260Z,90.00
2019-02-10T09:47:19.260Z,95.62
2019-02-10T09:48:19.236Z,101.25
2019-02-10T09:49:19.237Z,101.25
2019-02-10T09:50:19.220Z,101.25
2019-02-10T09:51:19.200Z,95.62
2019-02-10T09:52:19.222Z,95.62
2019-02-10T09:53:19.188Z,90.00
2019-02-10T09:54:19.176Z,84.38
2019-02-10T09:55:19.166Z,90.00
2019-02-10T09:56:19.158Z,90.00
2019-02-10T09:57:19.144Z,90.00
2019-02-10T09:58:19.147Z,101.25
2019-02-10T09:59:19.114Z,101.25
2019-02-10T10:00:19.099Z,106.88
2019-02-10T10:01:19.086Z,112.50
2019-02-10T10:02:19.111Z,112.50
2019-02-10T10:03:19.073Z,112.50
2019-02-10T10:04:19.053Z,112.50
2019-02-10T10:05:19.053Z,106.88
2019-02-10T10:06:19.038Z,112.50
2019-02-10T10:07:19.044Z,112.50
2019-02-10T10:08:19.021Z,106.88
2019-02-10T10:09:19.799Z,106.88
2019-02-10T10:10:18.994Z,106.88
2019-02-10T10:11:18.998Z,106.88
2019-02-10T10:12:19.002Z,112.50
2019-02-10T10:13:18.955Z,106.88
2019-02-10T10:14:19.788Z,106.88
2019-02-10T10:15:18.944Z,112.50
2019-02-10T10:16:18.937Z,112.50
2019-02-10T10:17:18.920Z,106.88
2019-02-10T10:18:18.944Z,101.25
2019-02-10T10:19:18.887Z,101.25
2019-02-10T10:20:18.894Z,90.00
2019-02-10T10:21:18.879Z,90.00
2019-02-10T10:22:18.863Z,90.00
2019-02-10T10:23:18.881Z,84.38
2019-02-10T10:24:18.838Z,84.38
2019-02-10T10:25:18.832Z,84.38
2019-02-10T10:26:18.822Z,90.00
2019-02-10T10:27:18.822Z,90.00
2019-02-10T10:28:18.821Z,95.62
2019-02-10T10:29:18.786Z,95.62
2019-02-10T10:30:18.773Z,101.25
2019-02-10T10:31:18.758Z,101.25
2019-02-10T10:32:18.748Z,101.25
2019-02-10T10:33:18.760Z,95.62
2019-02-10T10:34:18.741Z,90.00
2019-02-10T10:35:18.733Z,84.38
2019-02-10T10:36:18.709Z,78.75
2019-02-10T10:37:18.706Z,78.75
2019-02-10T10:38:18.729Z,78.75
2019-02-10T10:39:18.682Z,84.38
2019-02-10T10:40:18.676Z,84.38
2019-02-10T10:41:18.662Z,84.38
2019-02-10T10:42:18.648Z,78.75
2019-02-10T10:43:18.649Z,84.38
2019-02-10T10:44:18.632Z,90.00
2019-02-10T10:45:18.606Z,90.00
2019-02-10T10:46:18.603Z,90.00
2019-02-10T10:47:18.595Z,84.38
2019-02-10T10:48:18.609Z,84.38
2019-02-10T10:49:18.571Z,90.00
2019-02-10T10:50:18.553Z,95.62
2019-02-10T10:51:18.542Z,90.00
2019-02-10T10:52:18.564Z,84.38
2019-02-10T10:53:18.561Z,84.38
2019-02-10T10:54:18.515Z,78.75
2019-02-10T10:55:18.501Z,84.38
2019-02-10T10:56:18.493Z,78.75
2019-02-10T10:57:18.479Z,78.75
2019-02-10T10:58:18.497Z,78.75
2019-02-10T10:59:18.503Z,78.75
2019-02-10T11:00:18.457Z,78.75
2019-02-10T11:01:25.227Z,73.12
2019-02-10T11:02:19.422Z,73.12
2019-02-10T11:03:18.433Z,73.12
2019-02-10T11:04:18.412Z,67.50
2019-02-10T11:05:18.386Z,67.50
2019-02-10T11:06:18.407Z,67.50
2019-02-10T11:07:18.372Z,67.50
2019-02-10T11:08:18.375Z,61.88
2019-02-10T11:09:18.347Z,61.88
2019-02-10T11:10:18.354Z,56.25
2019-02-10T11:11:18.328Z,56.25
2019-02-10T11:12:18.362Z,61.88
2019-02-10T11:13:18.337Z,67.50
2019-02-10T11:14:18.297Z,67.50
2019-02-10T11:15:18.288Z,67.50
2019-02-10T11:16:18.271Z,73.12
2019-02-10T11:17:18.254Z,78.75
2019-02-10T11:18:18.301Z,78.75
2019-02-10T11:19:18.260Z,78.75
2019-02-10T11:20:18.239Z,78.75
2019-02-10T11:21:18.224Z,90.00
2019-02-10T11:22:18.227Z,84.38
2019-02-10T11:23:18.194Z,84.38
2019-02-10T11:24:18.224Z,84.38
2019-02-10T11:25:18.213Z,84.38
2019-02-10T11:26:18.177Z,84.38
2019-02-10T11:27:18.145Z,84.38
2019-02-10T11:28:18.140Z,84.38
2019-02-10T11:29:18.126Z,90.00
2019-02-10T11:30:18.116Z,73.12
2019-02-10T11:31:18.129Z,78.75
2019-02-10T11:32:18.106Z,84.38
2019-02-10T11:33:18.088Z,90.00
2019-02-10T11:34:18.069Z,84.38
2019-02-10T11:35:18.087Z,90.00
2019-02-10T11:36:18.050Z,95.62
2019-02-10T11:37:18.067Z,90.00
2019-02-10T11:38:18.040Z,84.38
2019-02-10T11:39:18.027Z,95.62
2019-02-10T11:40:18.020Z,90.00
2019-02-10T11:41:18.025Z,90.00
2019-02-10T11:42:17.991Z,101.25
2019-02-10T11:43:17.989Z,106.88
2019-02-10T11:44:17.967Z,95.62
2019-02-10T11:45:17.957Z,95.62
2019-02-10T11:46:17.968Z,90.00
2019-02-10T11:47:17.925Z,118.12
2019-02-10T11:48:17.935Z,129.38
2019-02-10T11:49:17.914Z,146.25
2019-02-10T11:50:17.901Z,146.25
2019-02-10T11:51:17.914Z,106.88
2019-02-10T11:52:17.892Z,106.88
2019-02-10T11:53:17.915Z,123.75
2019-02-10T11:54:17.869Z,140.62
2019-02-10T11:55:17.848Z,112.50
2019-02-10T11:56:17.845Z,129.38
2019-02-10T11:57:17.828Z,146.25
2019-02-10T11:58:17.849Z,135.00
2019-02-10T11:59:17.809Z,106.88
2019-02-10T12:00:17.789Z,118.12
2019-02-10T12:01:17.777Z,135.00
2019-02-10T12:02:17.788Z,129.38
2019-02-10T12:03:17.761Z,146.25
2019-02-10T12:04:17.778Z,157.50
2019-02-10T12:05:17.741Z,151.88
2019-02-10T12:06:17.750Z,157.50
2019-02-10T12:07:17.706Z,146.25
2019-02-10T12:08:17.701Z,151.88
2019-02-10T12:09:17.689Z,129.38
2019-02-10T12:10:17.685Z,129.38
2019-02-10T12:11:17.679Z,129.38
2019-02-10T12:12:17.681Z,135.00
2019-02-10T12:13:17.643Z,135.00
2019-02-10T12:14:17.655Z,129.38
2019-02-10T12:15:17.633Z,129.38
2019-02-10T12:16:17.654Z,123.75
2019-02-10T12:17:17.612Z,112.50
2019-02-10T12:18:17.583Z,101.25
2019-02-10T12:19:17.582Z,106.88
2019-02-10T12:20:17.597Z,123.75
2019-02-10T12:21:17.594Z,129.38
2019-02-10T12:22:17.553Z,129.38
2019-02-10T12:23:17.541Z,129.38
2019-02-10T12:24:17.554Z,112.50
2019-02-10T12:25:17.520Z,106.88
2019-02-10T12:26:17.494Z,106.88
2019-02-10T12:27:17.524Z,106.88
2019-02-10T12:28:17.501Z,106.88
2019-02-10T12:29:17.476Z,101.25
2019-02-10T12:30:17.458Z,84.38
2019-02-10T12:31:17.446Z,78.75
2019-02-10T12:32:17.435Z,90.00
2019-02-10T12:33:17.454Z,106.88
2019-02-10T12:34:17.433Z,101.25
2019-02-10T12:35:17.421Z,101.25
2019-02-10T12:36:17.471Z,106.88
2019-02-10T12:37:17.405Z,106.88
2019-02-10T12:38:17.380Z,95.62
2019-02-10T12:39:17.374Z,90.00
2019-02-10T12:40:17.353Z,90.00
2019-02-10T12:41:17.375Z,90.00
2019-02-10T12:42:17.364Z,95.62
2019-02-10T12:43:17.378Z,106.88
2019-02-10T12:44:17.305Z,118.12
2019-02-10T12:45:17.305Z,106.88
2019-02-10T12:46:17.290Z,101.25
2019-02-10T12:47:17.347Z,106.88
2019-02-10T12:48:17.292Z,112.50
2019-02-10T12:49:17.282Z,123.75
2019-02-10T12:50:17.269Z,112.50
2019-02-10T12:51:17.233Z,106.88
2019-02-10T12:52:17.224Z,106.88
2019-02-10T12:53:17.216Z,106.88
2019-02-10T12:54:17.243Z,106.88
2019-02-10T12:55:17.225Z,112.50
2019-02-10T12:56:17.178Z,112.50
2019-02-10T12:57:17.174Z,112.50
2019-02-10T12:58:17.168Z,118.12
2019-02-10T12:59:17.148Z,118.12
2019-02-10T13:00:17.150Z,118.12
2019-02-10T13:01:17.153Z,118.12